sensor_id;sensor_type;location;lat;lon;timestamp;P1;durP1;ratioP1;P2;durP2;ratioP2
72037;SDS011;59900;50.788;12.904;2024-01-11T00:00:56;26.70;;;11.02;;
72037;SDS011;59900;50.788;12.904;2024-01-11T00:03:24;20.73;;;10.93;;
72037;SDS011;59900;50.788;12.904;2024-01-11T00:05:49;30.92;;;10.95;;
72037;SDS011;59900;50.788;12.904;2024-01-11T00:08:14;26.23;;;11.13;;
72037;SDS011;59900;50.788;12.904;2024-01-11T00:10:40;27.97;;;11.53;;
72037;SDS011;59900;50.788;12.904;2024-01-11T00:13:05;23.83;;;10.70;;
72037;SDS011;59900;50.788;12.904;2024-01-11T00:15:30;32.37;;;12.20;;
72037;SDS011;59900;50.788;12.904;2024-01-11T00:17:56;27.23;;;11.57;;
72037;SDS011;59900;50.788;12.904;2024-01-11T00:20:21;29.40;;;11.30;;
72037;SDS011;59900;50.788;12.904;2024-01-11T00:22:46;23.50;;;11.33;;
72037;SDS011;59900;50.788;12.904;2024-01-11T00:25:12;28.97;;;10.73;;
72037;SDS011;59900;50.788;12.904;2024-01-11T00:27:37;28.87;;;11.97;;
72037;SDS011;59900;50.788;12.904;2024-01-11T00:30:02;29.03;;;11.90;;
72037;SDS011;59900;50.788;12.904;2024-01-11T00:32:28;32.88;;;13.45;;
72037;SDS011;59900;50.788;12.904;2024-01-11T00:34:53;29.10;;;13.60;;
72037;SDS011;59900;50.788;12.904;2024-01-11T00:37:18;28.97;;;13.23;;
72037;SDS011;59900;50.788;12.904;2024-01-11T00:39:44;30.05;;;13.43;;
72037;SDS011;59900;50.788;12.904;2024-01-11T00:42:09;28.73;;;11.80;;
72037;SDS011;59900;50.788;12.904;2024-01-11T00:44:35;27.27;;;12.53;;
72037;SDS011;59900;50.788;12.904;2024-01-11T00:47:00;31.20;;;12.77;;
72037;SDS011;59900;50.788;12.904;2024-01-11T00:49:25;26.60;;;13.57;;
72037;SDS011;59900;50.788;12.904;2024-01-11T00:51:50;32.60;;;14.60;;
72037;SDS011;59900;50.788;12.904;2024-01-11T00:54:16;32.03;;;12.87;;
72037;SDS011;59900;50.788;12.904;2024-01-11T00:56:41;30.97;;;12.37;;
72037;SDS011;59900;50.788;12.904;2024-01-11T00:59:06;25.40;;;12.33;;
72037;SDS011;59900;50.788;12.904;2024-01-11T01:01:31;32.57;;;14.03;;
72037;SDS011;59900;50.788;12.904;2024-01-11T01:03:57;34.47;;;14.67;;
72037;SDS011;59900;50.788;12.904;2024-01-11T01:06:23;33.97;;;14.40;;
72037;SDS011;59900;50.788;12.904;2024-01-11T01:08:48;36.43;;;14.37;;
72037;SDS011;59900;50.788;12.904;2024-01-11T01:11:13;31.33;;;14.23;;
72037;SDS011;59900;50.788;12.904;2024-01-11T01:13:39;37.87;;;15.13;;
72037;SDS011;59900;50.788;12.904;2024-01-11T01:16:04;31.23;;;13.30;;
72037;SDS011;59900;50.788;12.904;2024-01-11T01:18:29;36.47;;;14.87;;
72037;SDS011;59900;50.788;12.904;2024-01-11T01:20:55;36.57;;;15.33;;
72037;SDS011;59900;50.788;12.904;2024-01-11T01:23:20;31.75;;;14.27;;
72037;SDS011;59900;50.788;12.904;2024-01-11T01:25:46;35.03;;;14.27;;
72037;SDS011;59900;50.788;12.904;2024-01-11T01:28:11;34.23;;;14.33;;
72037;SDS011;59900;50.788;12.904;2024-01-11T01:30:37;40.15;;;16.25;;
72037;SDS011;59900;50.788;12.904;2024-01-11T01:33:02;31.27;;;15.05;;
72037;SDS011;59900;50.788;12.904;2024-01-11T01:35:27;31.35;;;13.75;;
72037;SDS011;59900;50.788;12.904;2024-01-11T01:37:53;39.43;;;14.43;;
72037;SDS011;59900;50.788;12.904;2024-01-11T01:40:18;37.70;;;14.83;;
72037;SDS011;59900;50.788;12.904;2024-01-11T01:42:43;31.27;;;14.37;;
72037;SDS011;59900;50.788;12.904;2024-01-11T01:45:10;32.38;;;15.00;;
72037;SDS011;59900;50.788;12.904;2024-01-11T01:47:35;33.73;;;14.30;;
72037;SDS011;59900;50.788;12.904;2024-01-11T01:50:02;33.90;;;15.25;;
72037;SDS011;59900;50.788;12.904;2024-01-11T01:52:27;33.43;;;15.73;;
72037;SDS011;59900;50.788;12.904;2024-01-11T01:54:53;33.38;;;14.13;;
72037;SDS011;59900;50.788;12.904;2024-01-11T01:57:18;37.07;;;15.07;;
72037;SDS011;59900;50.788;12.904;2024-01-11T01:59:45;40.22;;;15.07;;
72037;SDS011;59900;50.788;12.904;2024-01-11T02:02:14;43.10;;;15.35;;
72037;SDS011;59900;50.788;12.904;2024-01-11T02:04:39;31.30;;;13.60;;
72037;SDS011;59900;50.788;12.904;2024-01-11T02:07:05;38.57;;;16.83;;
72037;SDS011;59900;50.788;12.904;2024-01-11T02:09:31;39.42;;;13.88;;
72037;SDS011;59900;50.788;12.904;2024-01-11T02:11:57;37.15;;;14.85;;
72037;SDS011;59900;50.788;12.904;2024-01-11T02:14:22;29.80;;;14.53;;
72037;SDS011;59900;50.788;12.904;2024-01-11T02:16:48;37.73;;;16.53;;
72037;SDS011;59900;50.788;12.904;2024-01-11T02:19:13;32.47;;;15.97;;
72037;SDS011;59900;50.788;12.904;2024-01-11T02:21:41;41.42;;;16.60;;
72037;SDS011;59900;50.788;12.904;2024-01-11T02:24:07;37.65;;;15.50;;
72037;SDS011;59900;50.788;12.904;2024-01-11T02:26:33;36.10;;;15.98;;
72037;SDS011;59900;50.788;12.904;2024-01-11T02:28:59;41.72;;;14.63;;
72037;SDS011;59900;50.788;12.904;2024-01-11T02:31:24;42.40;;;16.60;;
72037;SDS011;59900;50.788;12.904;2024-01-11T02:33:51;39.40;;;14.83;;
72037;SDS011;59900;50.788;12.904;2024-01-11T02:36:17;35.70;;;14.23;;
72037;SDS011;59900;50.788;12.904;2024-01-11T02:38:43;41.15;;;16.33;;
72037;SDS011;59900;50.788;12.904;2024-01-11T02:41:09;40.10;;;15.03;;
72037;SDS011;59900;50.788;12.904;2024-01-11T02:43:36;35.95;;;15.05;;
72037;SDS011;59900;50.788;12.904;2024-01-11T02:46:02;42.83;;;16.07;;
72037;SDS011;59900;50.788;12.904;2024-01-11T02:48:30;38.55;;;16.27;;
72037;SDS011;59900;50.788;12.904;2024-01-11T02:50:56;34.70;;;14.75;;
72037;SDS011;59900;50.788;12.904;2024-01-11T02:53:22;36.55;;;15.35;;
72037;SDS011;59900;50.788;12.904;2024-01-11T02:55:48;33.20;;;15.80;;
72037;SDS011;59900;50.788;12.904;2024-01-11T02:58:13;33.00;;;13.73;;
72037;SDS011;59900;50.788;12.904;2024-01-11T03:00:39;34.67;;;14.27;;
72037;SDS011;59900;50.788;12.904;2024-01-11T03:03:04;33.43;;;13.37;;
72037;SDS011;59900;50.788;12.904;2024-01-11T03:05:29;36.73;;;14.83;;
72037;SDS011;59900;50.788;12.904;2024-01-11T03:07:55;36.53;;;13.30;;
72037;SDS011;59900;50.788;12.904;2024-01-11T03:10:20;33.17;;;14.67;;
72037;SDS011;59900;50.788;12.904;2024-01-11T03:12:45;39.07;;;14.43;;
72037;SDS011;59900;50.788;12.904;2024-01-11T03:15:11;33.50;;;16.23;;
72037;SDS011;59900;50.788;12.904;2024-01-11T03:17:36;36.80;;;15.17;;
72037;SDS011;59900;50.788;12.904;2024-01-11T03:20:02;34.33;;;14.90;;
72037;SDS011;59900;50.788;12.904;2024-01-11T03:22:29;34.13;;;13.80;;
72037;SDS011;59900;50.788;12.904;2024-01-11T03:24:54;40.10;;;15.33;;
72037;SDS011;59900;50.788;12.904;2024-01-11T03:27:20;53.63;;;14.83;;
72037;SDS011;59900;50.788;12.904;2024-01-11T03:29:45;33.47;;;14.33;;
72037;SDS011;59900;50.788;12.904;2024-01-11T03:32:10;39.80;;;15.53;;
72037;SDS011;59900;50.788;12.904;2024-01-11T03:34:38;28.67;;;12.45;;
72037;SDS011;59900;50.788;12.904;2024-01-11T03:37:04;39.90;;;13.90;;
72037;SDS011;59900;50.788;12.904;2024-01-11T03:39:29;35.40;;;14.87;;
72037;SDS011;59900;50.788;12.904;2024-01-11T03:41:54;25.10;;;13.37;;
72037;SDS011;59900;50.788;12.904;2024-01-11T03:44:19;33.73;;;12.87;;
72037;SDS011;59900;50.788;12.904;2024-01-11T03:46:45;33.47;;;14.17;;
72037;SDS011;59900;50.788;12.904;2024-01-11T03:49:10;34.27;;;14.50;;
72037;SDS011;59900;50.788;12.904;2024-01-11T03:51:35;33.30;;;14.83;;
72037;SDS011;59900;50.788;12.904;2024-01-11T03:54:01;36.33;;;14.33;;
72037;SDS011;59900;50.788;12.904;2024-01-11T03:56:26;33.77;;;14.50;;
72037;SDS011;59900;50.788;12.904;2024-01-11T03:58:51;32.10;;;15.07;;
72037;SDS011;59900;50.788;12.904;2024-01-11T04:01:16;30.87;;;14.43;;
72037;SDS011;59900;50.788;12.904;2024-01-11T04:03:42;33.23;;;14.73;;
72037;SDS011;59900;50.788;12.904;2024-01-11T04:06:07;40.03;;;15.82;;
72037;SDS011;59900;50.788;12.904;2024-01-11T04:08:32;37.60;;;15.03;;
72037;SDS011;59900;50.788;12.904;2024-01-11T04:10:58;35.00;;;14.57;;
72037;SDS011;59900;50.788;12.904;2024-01-11T04:13:26;36.60;;;14.45;;
72037;SDS011;59900;50.788;12.904;2024-01-11T04:15:52;30.17;;;12.75;;
72037;SDS011;59900;50.788;12.904;2024-01-11T04:18:17;29.55;;;14.25;;
72037;SDS011;59900;50.788;12.904;2024-01-11T04:20:42;43.47;;;14.95;;
72037;SDS011;59900;50.788;12.904;2024-01-11T04:23:07;33.08;;;14.68;;
72037;SDS011;59900;50.788;12.904;2024-01-11T04:25:33;34.47;;;16.05;;
72037;SDS011;59900;50.788;12.904;2024-01-11T04:27:58;37.53;;;14.95;;
72037;SDS011;59900;50.788;12.904;2024-01-11T04:30:23;36.10;;;14.25;;
72037;SDS011;59900;50.788;12.904;2024-01-11T04:32:48;32.63;;;14.98;;
72037;SDS011;59900;50.788;12.904;2024-01-11T04:35:14;32.75;;;14.55;;
72037;SDS011;59900;50.788;12.904;2024-01-11T04:37:39;31.02;;;14.20;;
72037;SDS011;59900;50.788;12.904;2024-01-11T04:40:05;31.75;;;14.32;;
72037;SDS011;59900;50.788;12.904;2024-01-11T04:42:32;28.60;;;12.73;;
72037;SDS011;59900;50.788;12.904;2024-01-11T04:44:57;32.00;;;13.03;;
72037;SDS011;59900;50.788;12.904;2024-01-11T04:47:22;32.50;;;15.50;;
72037;SDS011;59900;50.788;12.904;2024-01-11T04:49:48;37.83;;;14.70;;
72037;SDS011;59900;50.788;12.904;2024-01-11T04:52:13;42.85;;;15.95;;
72037;SDS011;59900;50.788;12.904;2024-01-11T04:54:38;42.42;;;17.05;;
72037;SDS011;59900;50.788;12.904;2024-01-11T04:57:03;50.00;;;18.80;;
72037;SDS011;59900;50.788;12.904;2024-01-11T04:59:30;41.77;;;16.87;;
72037;SDS011;59900;50.788;12.904;2024-01-11T05:01:55;45.47;;;17.43;;
72037;SDS011;59900;50.788;12.904;2024-01-11T05:04:21;47.55;;;18.42;;
72037;SDS011;59900;50.788;12.904;2024-01-11T05:06:46;39.57;;;16.87;;
72037;SDS011;59900;50.788;12.904;2024-01-11T05:09:11;40.57;;;16.53;;
72037;SDS011;59900;50.788;12.904;2024-01-11T05:11:36;42.17;;;17.50;;
72037;SDS011;59900;50.788;12.904;2024-01-11T05:14:02;38.83;;;16.70;;
72037;SDS011;59900;50.788;12.904;2024-01-11T05:16:27;48.17;;;16.93;;
72037;SDS011;59900;50.788;12.904;2024-01-11T05:18:54;34.00;;;16.42;;
72037;SDS011;59900;50.788;12.904;2024-01-11T05:21:21;46.25;;;17.13;;
72037;SDS011;59900;50.788;12.904;2024-01-11T05:23:47;46.88;;;17.30;;
72037;SDS011;59900;50.788;12.904;2024-01-11T05:26:14;49.53;;;16.67;;
72037;SDS011;59900;50.788;12.904;2024-01-11T05:28:40;36.50;;;16.08;;
72037;SDS011;59900;50.788;12.904;2024-01-11T05:31:08;34.00;;;15.53;;
72037;SDS011;59900;50.788;12.904;2024-01-11T05:33:42;36.58;;;15.15;;
72037;SDS011;59900;50.788;12.904;2024-01-11T05:36:08;31.88;;;13.98;;
72037;SDS011;59900;50.788;12.904;2024-01-11T05:38:33;33.03;;;13.03;;
72037;SDS011;59900;50.788;12.904;2024-01-11T05:40:59;30.63;;;14.32;;
72037;SDS011;59900;50.788;12.904;2024-01-11T05:43:25;35.73;;;14.80;;
72037;SDS011;59900;50.788;12.904;2024-01-11T05:45:50;34.27;;;14.20;;
72037;SDS011;59900;50.788;12.904;2024-01-11T05:48:16;33.37;;;14.13;;
72037;SDS011;59900;50.788;12.904;2024-01-11T05:50:42;36.25;;;14.52;;
72037;SDS011;59900;50.788;12.904;2024-01-11T05:53:07;35.85;;;15.35;;
72037;SDS011;59900;50.788;12.904;2024-01-11T05:55:32;37.43;;;13.63;;
72037;SDS011;59900;50.788;12.904;2024-01-11T05:57:58;29.30;;;13.50;;
72037;SDS011;59900;50.788;12.904;2024-01-11T06:00:23;30.80;;;13.67;;
72037;SDS011;59900;50.788;12.904;2024-01-11T06:02:48;36.20;;;14.80;;
72037;SDS011;59900;50.788;12.904;2024-01-11T06:05:13;32.43;;;14.43;;
72037;SDS011;59900;50.788;12.904;2024-01-11T06:07:40;29.50;;;14.63;;
72037;SDS011;59900;50.788;12.904;2024-01-11T06:10:05;32.53;;;14.18;;
72037;SDS011;59900;50.788;12.904;2024-01-11T06:12:31;36.47;;;15.97;;
72037;SDS011;59900;50.788;12.904;2024-01-11T06:14:57;42.63;;;17.05;;
72037;SDS011;59900;50.788;12.904;2024-01-11T06:17:22;39.50;;;15.90;;
72037;SDS011;59900;50.788;12.904;2024-01-11T06:19:48;41.33;;;16.57;;
72037;SDS011;59900;50.788;12.904;2024-01-11T06:22:13;37.83;;;17.33;;
72037;SDS011;59900;50.788;12.904;2024-01-11T06:24:38;39.07;;;15.90;;
72037;SDS011;59900;50.788;12.904;2024-01-11T06:27:03;43.20;;;16.50;;
72037;SDS011;59900;50.788;12.904;2024-01-11T06:29:29;40.03;;;17.23;;
72037;SDS011;59900;50.788;12.904;2024-01-11T06:31:54;41.22;;;18.58;;
72037;SDS011;59900;50.788;12.904;2024-01-11T06:34:19;41.23;;;17.20;;
72037;SDS011;59900;50.788;12.904;2024-01-11T06:36:45;38.60;;;16.07;;
72037;SDS011;59900;50.788;12.904;2024-01-11T06:39:10;40.70;;;17.07;;
72037;SDS011;59900;50.788;12.904;2024-01-11T06:41:35;44.63;;;16.93;;
72037;SDS011;59900;50.788;12.904;2024-01-11T06:44:00;42.70;;;17.23;;
72037;SDS011;59900;50.788;12.904;2024-01-11T06:46:26;37.93;;;16.43;;
72037;SDS011;59900;50.788;12.904;2024-01-11T06:48:51;44.40;;;16.77;;
72037;SDS011;59900;50.788;12.904;2024-01-11T06:51:20;42.50;;;17.57;;
72037;SDS011;59900;50.788;12.904;2024-01-11T06:53:46;40.28;;;17.90;;
72037;SDS011;59900;50.788;12.904;2024-01-11T06:56:18;40.30;;;15.60;;
72037;SDS011;59900;50.788;12.904;2024-01-11T06:58:45;40.78;;;16.65;;
72037;SDS011;59900;50.788;12.904;2024-01-11T07:01:11;39.97;;;16.27;;
72037;SDS011;59900;50.788;12.904;2024-01-11T07:03:37;44.37;;;17.87;;
72037;SDS011;59900;50.788;12.904;2024-01-11T07:06:03;45.05;;;17.15;;
72037;SDS011;59900;50.788;12.904;2024-01-11T07:08:28;39.83;;;16.83;;
72037;SDS011;59900;50.788;12.904;2024-01-11T07:10:54;45.97;;;17.27;;
72037;SDS011;59900;50.788;12.904;2024-01-11T07:13:19;43.90;;;17.50;;
72037;SDS011;59900;50.788;12.904;2024-01-11T07:15:44;39.83;;;16.50;;
72037;SDS011;59900;50.788;12.904;2024-01-11T07:18:10;52.03;;;17.00;;
72037;SDS011;59900;50.788;12.904;2024-01-11T07:20:35;43.42;;;17.85;;
72037;SDS011;59900;50.788;12.904;2024-01-11T07:23:01;44.47;;;17.10;;
72037;SDS011;59900;50.788;12.904;2024-01-11T07:25:26;47.20;;;17.73;;
72037;SDS011;59900;50.788;12.904;2024-01-11T07:27:51;34.97;;;16.60;;
72037;SDS011;59900;50.788;12.904;2024-01-11T07:30:17;47.43;;;19.23;;
72037;SDS011;59900;50.788;12.904;2024-01-11T07:32:43;39.67;;;16.55;;
72037;SDS011;59900;50.788;12.904;2024-01-11T07:35:09;43.65;;;17.33;;
72037;SDS011;59900;50.788;12.904;2024-01-11T07:37:35;45.85;;;18.55;;
72037;SDS011;59900;50.788;12.904;2024-01-11T07:40:01;46.25;;;18.40;;
72037;SDS011;59900;50.788;12.904;2024-01-11T07:42:28;36.85;;;16.95;;
72037;SDS011;59900;50.788;12.904;2024-01-11T07:44:54;45.27;;;17.63;;
72037;SDS011;59900;50.788;12.904;2024-01-11T07:47:19;43.30;;;17.37;;
72037;SDS011;59900;50.788;12.904;2024-01-11T07:49:44;47.33;;;16.50;;
72037;SDS011;59900;50.788;12.904;2024-01-11T07:52:10;42.58;;;15.48;;
72037;SDS011;59900;50.788;12.904;2024-01-11T07:54:35;34.25;;;15.52;;
72037;SDS011;59900;50.788;12.904;2024-01-11T07:57:00;36.33;;;16.30;;
72037;SDS011;59900;50.788;12.904;2024-01-11T07:59:27;35.00;;;14.52;;
72037;SDS011;59900;50.788;12.904;2024-01-11T08:01:53;38.75;;;15.25;;
72037;SDS011;59900;50.788;12.904;2024-01-11T08:04:19;41.07;;;16.60;;
72037;SDS011;59900;50.788;12.904;2024-01-11T08:06:45;39.38;;;16.95;;
72037;SDS011;59900;50.788;12.904;2024-01-11T08:09:10;43.60;;;17.97;;
72037;SDS011;59900;50.788;12.904;2024-01-11T08:11:38;45.35;;;17.30;;
72037;SDS011;59900;50.788;12.904;2024-01-11T08:14:04;42.73;;;17.47;;
72037;SDS011;59900;50.788;12.904;2024-01-11T08:16:30;37.67;;;17.38;;
72037;SDS011;59900;50.788;12.904;2024-01-11T08:18:55;42.37;;;16.77;;
72037;SDS011;59900;50.788;12.904;2024-01-11T08:21:21;48.60;;;16.97;;
72037;SDS011;59900;50.788;12.904;2024-01-11T08:23:46;44.20;;;16.17;;
72037;SDS011;59900;50.788;12.904;2024-01-11T08:26:14;46.60;;;18.33;;
72037;SDS011;59900;50.788;12.904;2024-01-11T08:28:40;45.17;;;18.40;;
72037;SDS011;59900;50.788;12.904;2024-01-11T08:31:06;46.77;;;17.53;;
72037;SDS011;59900;50.788;12.904;2024-01-11T08:33:31;43.97;;;16.00;;
72037;SDS011;59900;50.788;12.904;2024-01-11T08:35:57;34.43;;;14.73;;
72037;SDS011;59900;50.788;12.904;2024-01-11T08:38:22;43.95;;;16.75;;
72037;SDS011;59900;50.788;12.904;2024-01-11T08:40:49;41.47;;;16.65;;
72037;SDS011;59900;50.788;12.904;2024-01-11T08:43:14;38.08;;;15.75;;
72037;SDS011;59900;50.788;12.904;2024-01-11T08:45:40;47.70;;;17.97;;
72037;SDS011;59900;50.788;12.904;2024-01-11T08:48:05;50.17;;;19.10;;
72037;SDS011;59900;50.788;12.904;2024-01-11T08:50:30;47.97;;;19.03;;
72037;SDS011;59900;50.788;12.904;2024-01-11T08:52:57;44.15;;;17.17;;
72037;SDS011;59900;50.788;12.904;2024-01-11T08:55:22;39.17;;;16.53;;
72037;SDS011;59900;50.788;12.904;2024-01-11T08:57:48;40.03;;;18.00;;
72037;SDS011;59900;50.788;12.904;2024-01-11T09:00:13;39.33;;;16.33;;
72037;SDS011;59900;50.788;12.904;2024-01-11T09:02:42;42.38;;;16.40;;
72037;SDS011;59900;50.788;12.904;2024-01-11T09:05:08;40.40;;;16.25;;
72037;SDS011;59900;50.788;12.904;2024-01-11T09:07:33;42.17;;;15.90;;
72037;SDS011;59900;50.788;12.904;2024-01-11T09:09:58;42.77;;;16.80;;
72037;SDS011;59900;50.788;12.904;2024-01-11T09:12:24;45.20;;;16.13;;
72037;SDS011;59900;50.788;12.904;2024-01-11T09:14:49;38.77;;;16.10;;
72037;SDS011;59900;50.788;12.904;2024-01-11T09:17:14;39.40;;;16.43;;
72037;SDS011;59900;50.788;12.904;2024-01-11T09:19:39;38.20;;;17.03;;
72037;SDS011;59900;50.788;12.904;2024-01-11T09:22:05;36.13;;;15.93;;
72037;SDS011;59900;50.788;12.904;2024-01-11T09:24:30;39.03;;;17.33;;
72037;SDS011;59900;50.788;12.904;2024-01-11T09:26:55;37.77;;;16.43;;
72037;SDS011;59900;50.788;12.904;2024-01-11T09:29:21;45.30;;;16.10;;
72037;SDS011;59900;50.788;12.904;2024-01-11T09:31:46;38.77;;;15.00;;
72037;SDS011;59900;50.788;12.904;2024-01-11T09:34:11;34.47;;;13.83;;
72037;SDS011;59900;50.788;12.904;2024-01-11T09:36:37;34.70;;;15.43;;
72037;SDS011;59900;50.788;12.904;2024-01-11T09:39:04;31.90;;;13.55;;
72037;SDS011;59900;50.788;12.904;2024-01-11T09:41:30;34.73;;;14.33;;
72037;SDS011;59900;50.788;12.904;2024-01-11T09:43:56;35.20;;;14.45;;
72037;SDS011;59900;50.788;12.904;2024-01-11T09:46:25;43.83;;;16.27;;
72037;SDS011;59900;50.788;12.904;2024-01-11T09:48:50;34.93;;;16.40;;
72037;SDS011;59900;50.788;12.904;2024-01-11T09:51:18;40.83;;;16.63;;
72037;SDS011;59900;50.788;12.904;2024-01-11T09:53:43;39.07;;;16.40;;
72037;SDS011;59900;50.788;12.904;2024-01-11T09:56:09;40.43;;;16.20;;
72037;SDS011;59900;50.788;12.904;2024-01-11T09:58:35;38.65;;;15.93;;
72037;SDS011;59900;50.788;12.904;2024-01-11T10:01:04;35.13;;;16.88;;
72037;SDS011;59900;50.788;12.904;2024-01-11T10:03:34;44.67;;;15.07;;
72037;SDS011;59900;50.788;12.904;2024-01-11T10:05:59;38.85;;;15.73;;
72037;SDS011;59900;50.788;12.904;2024-01-11T10:08:26;33.90;;;15.27;;
72037;SDS011;59900;50.788;12.904;2024-01-11T10:10:53;36.10;;;14.88;;
72037;SDS011;59900;50.788;12.904;2024-01-11T10:13:18;38.50;;;14.40;;
72037;SDS011;59900;50.788;12.904;2024-01-11T10:15:43;36.07;;;15.20;;
72037;SDS011;59900;50.788;12.904;2024-01-11T10:18:09;32.53;;;14.30;;
72037;SDS011;59900;50.788;12.904;2024-01-11T10:20:34;31.65;;;13.80;;
72037;SDS011;59900;50.788;12.904;2024-01-11T10:23:01;33.05;;;13.00;;
72037;SDS011;59900;50.788;12.904;2024-01-11T10:25:27;31.50;;;12.80;;
72037;SDS011;59900;50.788;12.904;2024-01-11T10:27:53;30.15;;;13.20;;
72037;SDS011;59900;50.788;12.904;2024-01-11T10:30:21;28.90;;;13.30;;
72037;SDS011;59900;50.788;12.904;2024-01-11T10:32:48;28.25;;;12.48;;
72037;SDS011;59900;50.788;12.904;2024-01-11T10:35:14;29.80;;;12.80;;
72037;SDS011;59900;50.788;12.904;2024-01-11T10:37:39;34.72;;;13.20;;
72037;SDS011;59900;50.788;12.904;2024-01-11T10:40:08;34.80;;;14.18;;
72037;SDS011;59900;50.788;12.904;2024-01-11T10:42:39;34.47;;;13.88;;
72037;SDS011;59900;50.788;12.904;2024-01-11T10:45:19;38.10;;;13.95;;
72037;SDS011;59900;50.788;12.904;2024-01-11T10:47:55;32.75;;;13.77;;
72037;SDS011;59900;50.788;12.904;2024-01-11T10:50:22;33.95;;;13.70;;
72037;SDS011;59900;50.788;12.904;2024-01-11T10:55:37;30.63;;;14.07;;
72037;SDS011;59900;50.788;12.904;2024-01-11T10:58:03;30.42;;;13.98;;
72037;SDS011;59900;50.788;12.904;2024-01-11T11:00:29;28.98;;;12.60;;
72037;SDS011;59900;50.788;12.904;2024-01-11T11:02:55;36.78;;;13.98;;
72037;SDS011;59900;50.788;12.904;2024-01-11T11:05:24;32.35;;;13.63;;
72037;SDS011;59900;50.788;12.904;2024-01-11T11:07:51;29.77;;;13.45;;
72037;SDS011;59900;50.788;12.904;2024-01-11T11:10:23;33.60;;;13.55;;
72037;SDS011;59900;50.788;12.904;2024-01-11T11:12:51;37.15;;;14.32;;
72037;SDS011;59900;50.788;12.904;2024-01-11T11:15:19;37.70;;;15.07;;
72037;SDS011;59900;50.788;12.904;2024-01-11T11:17:45;37.33;;;13.57;;
72037;SDS011;59900;50.788;12.904;2024-01-11T11:20:13;32.72;;;13.27;;
72037;SDS011;59900;50.788;12.904;2024-01-11T11:22:40;36.20;;;13.43;;
72037;SDS011;59900;50.788;12.904;2024-01-11T11:25:09;34.93;;;14.70;;
72037;SDS011;59900;50.788;12.904;2024-01-11T11:27:35;31.42;;;12.98;;
72037;SDS011;59900;50.788;12.904;2024-01-11T11:30:02;27.95;;;12.82;;
72037;SDS011;59900;50.788;12.904;2024-01-11T11:32:35;33.15;;;12.90;;
72037;SDS011;59900;50.788;12.904;2024-01-11T11:35:07;29.30;;;12.73;;
72037;SDS011;59900;50.788;12.904;2024-01-11T11:37:33;32.67;;;12.50;;
72037;SDS011;59900;50.788;12.904;2024-01-11T11:40:01;31.60;;;13.40;;
72037;SDS011;59900;50.788;12.904;2024-01-11T11:42:27;31.92;;;13.18;;
72037;SDS011;59900;50.788;12.904;2024-01-11T11:44:55;32.22;;;13.35;;
72037;SDS011;59900;50.788;12.904;2024-01-11T11:47:22;32.30;;;13.60;;
72037;SDS011;59900;50.788;12.904;2024-01-11T11:50:02;37.75;;;14.05;;
72037;SDS011;59900;50.788;12.904;2024-01-11T11:52:33;29.35;;;13.73;;
72037;SDS011;59900;50.788;12.904;2024-01-11T11:55:00;32.80;;;14.45;;
72037;SDS011;59900;50.788;12.904;2024-01-11T11:57:27;34.75;;;14.65;;
72037;SDS011;59900;50.788;12.904;2024-01-11T11:59:54;31.50;;;14.40;;
72037;SDS011;59900;50.788;12.904;2024-01-11T12:02:22;37.58;;;15.27;;
72037;SDS011;59900;50.788;12.904;2024-01-11T12:04:49;38.80;;;15.65;;
72037;SDS011;59900;50.788;12.904;2024-01-11T12:07:15;40.73;;;15.03;;
72037;SDS011;59900;50.788;12.904;2024-01-11T12:09:41;45.30;;;15.60;;
72037;SDS011;59900;50.788;12.904;2024-01-11T12:12:06;37.90;;;15.90;;
72037;SDS011;59900;50.788;12.904;2024-01-11T12:14:32;38.43;;;16.27;;
72037;SDS011;59900;50.788;12.904;2024-01-11T12:16:57;37.10;;;16.17;;
72037;SDS011;59900;50.788;12.904;2024-01-11T12:19:26;35.50;;;16.13;;
72037;SDS011;59900;50.788;12.904;2024-01-11T12:21:51;41.28;;;16.40;;
72037;SDS011;59900;50.788;12.904;2024-01-11T12:24:16;42.50;;;17.63;;
72037;SDS011;59900;50.788;12.904;2024-01-11T12:26:45;45.70;;;19.05;;
72037;SDS011;59900;50.788;12.904;2024-01-11T12:29:11;41.40;;;18.40;;
72037;SDS011;59900;50.788;12.904;2024-01-11T12:31:38;39.58;;;18.50;;
72037;SDS011;59900;50.788;12.904;2024-01-11T12:34:03;34.23;;;15.67;;
72037;SDS011;59900;50.788;12.904;2024-01-11T12:36:29;37.50;;;16.38;;
72037;SDS011;59900;50.788;12.904;2024-01-11T12:38:54;44.20;;;16.90;;
72037;SDS011;59900;50.788;12.904;2024-01-11T12:41:21;34.73;;;15.20;;
72037;SDS011;59900;50.788;12.904;2024-01-11T12:43:47;38.17;;;15.63;;
72037;SDS011;59900;50.788;12.904;2024-01-11T12:46:12;42.23;;;16.70;;
72037;SDS011;59900;50.788;12.904;2024-01-11T12:48:38;38.03;;;15.50;;
72037;SDS011;59900;50.788;12.904;2024-01-11T12:51:04;47.90;;;18.50;;
72037;SDS011;59900;50.788;12.904;2024-01-11T12:53:30;44.50;;;18.17;;
72037;SDS011;59900;50.788;12.904;2024-01-11T12:56:02;46.67;;;18.10;;
72037;SDS011;59900;50.788;12.904;2024-01-11T12:58:34;41.58;;;18.30;;
72037;SDS011;59900;50.788;12.904;2024-01-11T13:00:59;43.73;;;17.60;;
72037;SDS011;59900;50.788;12.904;2024-01-11T13:03:25;45.88;;;17.27;;
72037;SDS011;59900;50.788;12.904;2024-01-11T13:05:52;47.73;;;18.60;;
72037;SDS011;59900;50.788;12.904;2024-01-11T13:08:17;43.90;;;18.77;;
72037;SDS011;59900;50.788;12.904;2024-01-11T13:10:43;41.23;;;15.90;;
72037;SDS011;59900;50.788;12.904;2024-01-11T13:13:08;42.50;;;17.53;;
72037;SDS011;59900;50.788;12.904;2024-01-11T13:15:33;47.53;;;19.07;;
72037;SDS011;59900;50.788;12.904;2024-01-11T13:18:02;49.37;;;18.40;;
72037;SDS011;59900;50.788;12.904;2024-01-11T13:20:28;34.28;;;15.60;;
72037;SDS011;59900;50.788;12.904;2024-01-11T13:25:41;38.78;;;16.20;;
72037;SDS011;59900;50.788;12.904;2024-01-11T13:28:08;39.33;;;15.70;;
72037;SDS011;59900;50.788;12.904;2024-01-11T13:30:36;33.38;;;15.02;;
72037;SDS011;59900;50.788;12.904;2024-01-11T13:33:02;44.90;;;15.98;;
72037;SDS011;59900;50.788;12.904;2024-01-11T13:35:27;37.13;;;15.73;;
72037;SDS011;59900;50.788;12.904;2024-01-11T13:37:52;31.00;;;13.17;;
72037;SDS011;59900;50.788;12.904;2024-01-11T13:40:18;30.83;;;12.70;;
72037;SDS011;59900;50.788;12.904;2024-01-11T13:42:43;29.83;;;12.30;;
72037;SDS011;59900;50.788;12.904;2024-01-11T13:45:08;35.23;;;14.50;;
72037;SDS011;59900;50.788;12.904;2024-01-11T13:47:37;30.42;;;13.20;;
72037;SDS011;59900;50.788;12.904;2024-01-11T13:50:02;31.52;;;13.00;;
72037;SDS011;59900;50.788;12.904;2024-01-11T13:52:28;33.53;;;14.50;;
72037;SDS011;59900;50.788;12.904;2024-01-11T13:54:53;33.03;;;13.60;;
72037;SDS011;59900;50.788;12.904;2024-01-11T13:57:19;28.83;;;13.77;;
72037;SDS011;59900;50.788;12.904;2024-01-11T13:59:44;33.08;;;13.50;;
72037;SDS011;59900;50.788;12.904;2024-01-11T14:02:09;31.73;;;13.63;;
72037;SDS011;59900;50.788;12.904;2024-01-11T14:04:35;34.97;;;13.70;;
72037;SDS011;59900;50.788;12.904;2024-01-11T14:07:00;35.93;;;14.87;;